Time;durP1;ratioP1;P1;durP2;ratioP2;P2;SDS_P1;SDS_P2;PMS_P1;PMS_P2;Temp;Humidity;BMP_temperature;BMP_pressure;BME280_temperature;BME280_humidity;BME280_pressure;Samples;Min_cycle;Max_cycle;Signal;HPM_P1;HPM_P2
2023/12/05 00:00:31;;;;;;;24.98;12.98;;;0.50;99.90;;;;;;5052918;28;20037;-81
2023/12/05 00:02:58;;;;;;;25.58;13.30;;;0.50;99.90;;;;;;5053643;28;20071;-81
2023/12/05 00:05:24;;;;;;;27.98;13.85;;;0.50;99.90;;;;;;5052584;28;20045;-81
2023/12/05 00:07:50;;;;;;;25.67;11.88;;;0.50;99.90;;;;;;5051950;28;20057;-81
2023/12/05 00:10:15;;;;;;;28.90;13.00;;;0.50;99.90;;;;;;5052580;28;20033;-81
2023/12/05 00:12:41;;;;;;;26.92;14.32;;;0.50;99.90;;;;;;5052313;28;20049;-81
2023/12/05 00:15:08;;;;;;;28.02;12.82;;;0.50;99.90;;;;;;5052675;28;20049;-82
2023/12/05 00:17:34;;;;;;;25.98;12.45;;;0.50;99.90;;;;;;5052346;28;20052;-81
2023/12/05 00:19:59;;;;;;;27.48;13.55;;;0.50;99.90;;;;;;5052630;28;20041;-81
2023/12/05 00:22:28;;;;;;;31.08;14.20;;;0.50;99.90;;;;;;5053557;28;20132;-81
2023/12/05 00:24:57;;;;;;;24.42;12.85;;;0.40;99.90;;;;;;5052529;28;20044;-81
2023/12/05 00:27:23;;;;;;;24.85;12.70;;;0.50;99.90;;;;;;5052248;28;20037;-81
2023/12/05 00:29:48;;;;;;;25.60;12.60;;;0.40;99.90;;;;;;5052324;28;20068;-81
2023/12/05 00:32:14;;;;;;;26.05;13.32;;;0.40;99.90;;;;;;5052241;28;20052;-81
2023/12/05 00:34:40;;;;;;;26.90;12.80;;;0.40;99.90;;;;;;5052282;28;20120;-81
2023/12/05 00:37:06;;;;;;;27.17;13.40;;;0.40;99.90;;;;;;5052255;28;20069;-81
2023/12/05 00:39:31;;;;;;;25.30;13.32;;;0.50;99.90;;;;;;5052367;28;20052;-82
2023/12/05 00:41:57;;;;;;;21.60;11.73;;;0.50;99.90;;;;;;5051733;28;20040;-81
2023/12/05 00:44:23;;;;;;;23.02;12.15;;;0.40;99.90;;;;;;5051999;28;20139;-82
2023/12/05 00:46:51;;;;;;;27.17;12.00;;;0.40;99.90;;;;;;5054268;28;20029;-81
2023/12/05 00:49:17;;;;;;;23.65;12.50;;;0.40;99.90;;;;;;5056108;28;20127;-82
2023/12/05 00:51:43;;;;;;;25.60;12.77;;;0.40;99.90;;;;;;5056327;28;20091;-82
2023/12/05 00:54:08;;;;;;;19.67;11.13;;;0.40;99.90;;;;;;5055926;28;20044;-82
2023/12/05 00:56:34;;;;;;;23.83;12.13;;;0.40;99.90;;;;;;5056093;28;20049;-81
2023/12/05 00:58:59;;;;;;;21.38;12.10;;;0.40;99.90;;;;;;5056237;28;20044;-81
2023/12/05 01:01:27;;;;;;;26.63;12.18;;;0.40;99.90;;;;;;5055446;28;20053;-82
2023/12/05 01:03:54;;;;;;;28.95;14.57;;;0.40;99.90;;;;;;5056250;28;20044;-81
2023/12/05 01:06:20;;;;;;;24.27;12.65;;;0.40;99.90;;;;;;5055927;28;20432;-81
2023/12/05 01:08:45;;;;;;;22.38;12.93;;;0.40;99.90;;;;;;5055998;28;20081;-82
2023/12/05 01:11:11;;;;;;;27.70;14.30;;;0.40;99.90;;;;;;5055782;28;20041;-82
2023/12/05 01:13:37;;;;;;;30.63;14.98;;;0.30;99.90;;;;;;5055705;28;20053;-82
2023/12/05 01:16:03;;;;;;;23.95;12.95;;;0.30;99.90;;;;;;5055786;28;20087;-82
2023/12/05 01:18:29;;;;;;;34.85;14.43;;;0.30;99.90;;;;;;5056021;28;20387;-82
2023/12/05 01:20:55;;;;;;;30.23;15.43;;;0.30;99.90;;;;;;5055930;28;20570;-81
2023/12/05 01:23:20;;;;;;;31.33;16.42;;;0.30;99.90;;;;;;5055536;28;20404;-82
2023/12/05 01:25:46;;;;;;;27.15;14.35;;;0.30;99.90;;;;;;5055716;28;20496;-81
2023/12/05 01:28:12;;;;;;;26.25;14.95;;;0.30;99.90;;;;;;5055255;28;20045;-82
2023/12/05 01:30:38;;;;;;;29.95;13.23;;;0.30;99.90;;;;;;5055450;28;20095;-81
2023/12/05 01:33:03;;;;;;;31.13;14.48;;;0.30;99.90;;;;;;5055479;28;20052;-82
2023/12/05 01:35:29;;;;;;;26.98;13.95;;;0.30;99.90;;;;;;5055485;28;20037;-82
2023/12/05 01:37:54;;;;;;;32.63;14.98;;;0.30;99.90;;;;;;5055683;28;20045;-82
2023/12/05 01:40:20;;;;;;;28.70;15.30;;;0.30;99.90;;;;;;5055180;28;20512;-82
2023/12/05 01:42:46;;;;;;;30.13;14.95;;;0.30;99.90;;;;;;5055266;28;20048;-82
2023/12/05 01:45:12;;;;;;;35.67;19.92;;;0.30;99.90;;;;;;5055489;28;20045;-82
2023/12/05 01:47:39;;;;;;;29.83;14.60;;;0.30;99.90;;;;;;5055483;28;20048;-82
2023/12/05 01:50:10;;;;;;;33.70;16.92;;;0.30;99.90;;;;;;5055389;28;20551;-82
2023/12/05 01:52:39;;;;;;;29.95;14.32;;;0.20;99.90;;;;;;5055046;28;20500;-82
2023/12/05 01:55:06;;;;;;;32.85;15.93;;;0.20;99.90;;;;;;5055167;28;20037;-82
2023/12/05 01:57:33;;;;;;;32.15;14.85;;;0.20;99.90;;;;;;5054949;28;20052;-82
2023/12/05 02:00:00;;;;;;;26.00;14.25;;;0.20;99.90;;;;;;5054976;28;20045;-82
2023/12/05 02:02:26;;;;;;;25.77;13.75;;;0.20;99.90;;;;;;5054346;28;20060;-82
2023/12/05 02:04:51;;;;;;;31.08;15.90;;;0.30;99.90;;;;;;5054840;28;20053;-82
2023/12/05 02:07:18;;;;;;;31.95;16.27;;;0.20;99.90;;;;;;5054980;28;20045;-82
2023/12/05 02:09:44;;;;;;;37.55;16.83;;;0.20;99.90;;;;;;5054893;28;20546;-82
2023/12/05 02:12:10;;;;;;;35.03;15.85;;;0.20;99.90;;;;;;5054952;28;20385;-82
2023/12/05 02:14:36;;;;;;;29.52;16.88;;;0.20;99.90;;;;;;5055204;28;20530;-82
2023/12/05 02:17:01;;;;;;;30.65;16.13;;;0.20;99.90;;;;;;5054602;28;20056;-82
2023/12/05 02:20:20;;;;;;;37.63;17.20;;;0.30;99.90;;;;;;5054422;28;20041;-82
2023/12/05 02:22:51;;;;;;;37.28;16.63;;;0.20;99.90;;;;;;4978129;28;20089;-82
2023/12/05 02:25:44;;;;;;;33.22;17.42;;;0.20;99.90;;;;;;5041306;28;20049;-82
2023/12/05 02:28:10;;;;;;;28.27;14.23;;;0.20;99.90;;;;;;5054534;28;20404;-82
2023/12/05 02:30:36;;;;;;;34.40;18.23;;;0.20;99.90;;;;;;5054610;28;20041;-82
2023/12/05 02:33:02;;;;;;;31.35;15.60;;;0.20;99.90;;;;;;5054617;28;20049;-82
2023/12/05 02:35:28;;;;;;;37.67;18.05;;;0.20;99.90;;;;;;5038023;28;20110;-82
2023/12/05 02:38:20;;;;;;;36.15;17.23;;;0.20;99.90;;;;;;5054485;28;20443;-82
2023/12/05 02:41:09;;;;;;;40.58;18.00;;;0.20;99.90;;;;;;5049848;28;20037;-82
2023/12/05 02:43:46;;;;;;;27.15;15.07;;;0.20;99.90;;;;;;5054187;28;20071;-82
2023/12/05 02:46:14;;;;;;;34.55;17.90;;;0.20;99.90;;;;;;5054466;28;20391;-82
2023/12/05 02:48:40;;;;;;;34.78;15.93;;;0.20;99.90;;;;;;5054667;28;20049;-82
2023/12/05 02:51:06;;;;;;;31.60;17.45;;;0.30;99.90;;;;;;5053941;28;20041;-82
2023/12/05 02:53:32;;;;;;;32.83;16.23;;;0.30;99.90;;;;;;5054147;28;20144;-82
2023/12/05 02:55:57;;;;;;;35.33;17.05;;;0.30;99.90;;;;;;5053844;28;20045;-82
2023/12/05 02:58:23;;;;;;;33.25;15.80;;;0.20;99.90;;;;;;5054051;28;20523;-82
2023/12/05 03:00:50;;;;;;;38.25;19.08;;;0.20;99.90;;;;;;5053763;28;20365;-83
2023/12/05 03:03:15;;;;;;;31.05;16.85;;;0.20;99.90;;;;;;5053426;28;20095;-83
2023/12/05 03:05:41;;;;;;;31.08;16.58;;;0.30;99.90;;;;;;5053800;28;20076;-82
2023/12/05 03:08:07;;;;;;;33.65;18.35;;;0.20;99.90;;;;;;5053762;28;20048;-83
2023/12/05 03:10:32;;;;;;;37.75;20.27;;;0.20;99.90;;;;;;5052944;28;20044;-82
2023/12/05 03:12:58;;;;;;;38.03;17.83;;;0.20;99.90;;;;;;5053590;28;20052;-82
2023/12/05 03:15:23;;;;;;;33.15;17.33;;;0.20;99.90;;;;;;5053721;28;20052;-82
2023/12/05 03:17:49;;;;;;;34.72;18.52;;;0.20;99.90;;;;;;5053568;28;20392;-83
2023/12/05 03:20:15;;;;;;;38.58;18.17;;;0.20;99.90;;;;;;5053319;28;20044;-83
2023/12/05 03:22:40;;;;;;;33.97;18.90;;;0.20;99.90;;;;;;5053432;28;20052;-83
2023/12/05 03:25:06;;;;;;;36.30;19.38;;;0.20;99.90;;;;;;5053298;28;20396;-82
2023/12/05 03:27:32;;;;;;;41.67;19.00;;;0.20;99.90;;;;;;5053617;28;20115;-82
2023/12/05 03:29:59;;;;;;;36.92;19.33;;;0.20;99.90;;;;;;5061411;22;20064;-83
2023/12/05 03:32:24;;;;;;;35.40;17.65;;;0.20;99.90;;;;;;5055511;28;20058;-83
2023/12/05 03:34:50;;;;;;;33.97;18.60;;;0.20;99.90;;;;;;5056035;28;20041;-82
2023/12/05 03:37:15;;;;;;;40.35;20.88;;;0.20;99.90;;;;;;5056523;28;20083;-82
2023/12/05 03:39:41;;;;;;;40.78;20.08;;;0.20;99.90;;;;;;5056667;28;20388;-82
2023/12/05 03:42:07;;;;;;;36.53;18.05;;;0.10;99.90;;;;;;5056345;28;20090;-82
2023/12/05 03:44:32;;;;;;;35.00;18.05;;;0.20;99.90;;;;;;5056192;28;20190;-83
2023/12/05 03:46:58;;;;;;;38.85;18.42;;;0.20;99.90;;;;;;5056108;28;20051;-83
2023/12/05 03:49:23;;;;;;;36.95;19.23;;;0.20;99.90;;;;;;5056062;28;20071;-82
2023/12/05 03:51:49;;;;;;;36.38;17.35;;;0.20;99.90;;;;;;5056432;28;20072;-83
2023/12/05 03:54:15;;;;;;;35.22;18.17;;;0.20;99.90;;;;;;5056274;28;20055;-82
2023/12/05 03:56:41;;;;;;;40.13;21.17;;;0.20;99.90;;;;;;5056133;28;20504;-83
2023/12/05 03:59:06;;;;;;;39.95;19.95;;;0.20;99.90;;;;;;5056311;28;20553;-83
2023/12/05 04:01:34;;;;;;;37.42;19.08;;;0.20;99.90;;;;;;5056312;28;20041;-83
2023/12/05 04:04:00;;;;;;;40.13;19.77;;;0.20;99.90;;;;;;5056079;28;20040;-83
2023/12/05 04:06:26;;;;;;;38.95;19.88;;;0.20;99.90;;;;;;5055809;28;20381;-82
2023/12/05 04:08:51;;;;;;;38.95;19.10;;;0.20;99.90;;;;;;5055879;28;20036;-83
2023/12/05 04:11:27;;;;;;;35.95;20.10;;;0.20;99.90;;;;;;5056171;28;20045;-83
2023/12/05 04:13:52;;;;;;;37.50;21.05;;;0.30;99.90;;;;;;5055826;28;20045;-83
2023/12/05 04:16:18;;;;;;;40.05;20.58;;;0.20;99.90;;;;;;5055709;28;20503;-83
2023/12/05 04:18:44;;;;;;;37.42;18.70;;;0.20;99.90;;;;;;5055632;28;20121;-83
2023/12/05 04:21:09;;;;;;;38.53;18.55;;;0.20;99.90;;;;;;5054930;28;20051;-83
2023/12/05 04:23:35;;;;;;;37.35;21.00;;;0.30;99.90;;;;;;5055707;28;20133;-83
2023/12/05 04:26:03;;;;;;;39.80;21.63;;;0.30;99.90;;;;;;5055688;28;20058;-83
2023/12/05 04:28:31;;;;;;;38.03;18.65;;;0.20;99.90;;;;;;5055673;28;20492;-83
2023/12/05 04:30:57;;;;;;;38.58;18.38;;;0.30;99.90;;;;;;5055326;28;20467;-83
2023/12/05 04:33:23;;;;;;;35.53;18.48;;;0.20;99.90;;;;;;5055482;28;20483;-83
2023/12/05 04:35:49;;;;;;;37.67;18.02;;;0.20;99.90;;;;;;5055493;28;20052;-83
2023/12/05 04:38:15;;;;;;;39.38;19.92;;;0.20;99.90;;;;;;5055569;28;20144;-82
2023/12/05 04:40:41;;;;;;;38.20;18.20;;;0.20;99.90;;;;;;5055557;28;20066;-83
2023/12/05 04:43:06;;;;;;;38.45;18.83;;;0.20;99.90;;;;;;5055368;28;20049;-83
2023/12/05 04:45:34;;;;;;;34.88;18.13;;;0.30;99.90;;;;;;5055420;28;20036;-83
2023/12/05 04:48:00;;;;;;;36.83;18.48;;;0.30;99.90;;;;;;5055676;28;20423;-82
2023/12/05 04:50:25;;;;;;;35.03;17.63;;;0.30;99.90;;;;;;5055585;28;20048;-83
2023/12/05 04:52:51;;;;;;;40.80;19.83;;;0.20;99.90;;;;;;5055523;28;20048;-82
2023/12/05 04:55:17;;;;;;;37.97;16.58;;;0.30;99.90;;;;;;5055479;28;20094;-82
2023/12/05 04:57:42;;;;;;;42.78;19.98;;;0.20;99.90;;;;;;5055189;28;20041;-82
2023/12/05 05:00:09;;;;;;;39.85;19.05;;;0.20;99.90;;;;;;5055198;28;20515;-82
2023/12/05 05:02:34;;;;;;;48.60;22.08;;;0.20;99.90;;;;;;5055381;28;20132;-83
2023/12/05 05:05:00;;;;;;;41.17;19.90;;;0.20;99.90;;;;;;5073164;28;20127;-82
2023/12/05 05:07:26;;;;;;;41.88;20.00;;;0.20;99.90;;;;;;5055349;28;20051;-82
2023/12/05 05:09:52;;;;;;;44.30;20.75;;;0.20;99.90;;;;;;5055625;28;20059;-83
2023/12/05 05:12:17;;;;;;;45.92;21.90;;;0.20;99.90;;;;;;5055311;28;20047;-83
2023/12/05 05:14:43;;;;;;;42.42;20.88;;;0.20;99.90;;;;;;5055942;28;20041;-82
2023/12/05 05:17:10;;;;;;;44.90;21.42;;;0.30;99.90;;;;;;5055152;28;20048;-83
2023/12/05 05:19:36;;;;;;;45.65;21.73;;;0.30;99.90;;;;;;5054928;28;20408;-83
2023/12/05 05:22:01;;;;;;;39.42;19.05;;;0.20;99.90;;;;;;5055036;28;20480;-83
2023/12/05 05:24:27;;;;;;;45.28;20.45;;;0.20;99.90;;;;;;5055100;28;20056;-83
2023/12/05 05:26:53;;;;;;;43.60;20.77;;;0.30;99.90;;;;;;5055118;28;20046;-83
2023/12/05 05:29:19;;;;;;;37.40;19.77;;;0.20;99.90;;;;;;5055326;28;20426;-83
2023/12/05 05:31:45;;;;;;;41.47;19.45;;;0.20;99.90;;;;;;5072726;28;20081;-83
2023/12/05 05:34:10;;;;;;;40.80;17.73;;;0.30;99.90;;;;;;5058588;28;20056;-83
2023/12/05 05:36:36;;;;;;;41.25;19.20;;;0.30;99.90;;;;;;5058886;28;20040;-84
2023/12/05 05:39:02;;;;;;;38.33;18.65;;;0.30;99.90;;;;;;5058919;28;20078;-83
2023/12/05 05:41:27;;;;;;;37.20;17.33;;;0.30;99.90;;;;;;5058331;28;20486;-83
2023/12/05 05:43:53;;;;;;;41.63;20.30;;;0.30;99.90;;;;;;5058303;28;20551;-83
2023/12/05 05:46:19;;;;;;;38.70;18.10;;;0.30;99.90;;;;;;5058290;28;20124;-83
2023/12/05 05:48:44;;;;;;;40.97;19.35;;;0.30;99.90;;;;;;5058490;28;20047;-83
2023/12/05 05:51:10;;;;;;;40.20;18.20;;;0.30;99.90;;;;;;5058360;28;20380;-83
2023/12/05 05:53:36;;;;;;;39.25;17.83;;;0.30;99.90;;;;;;5058297;28;20045;-84
2023/12/05 05:56:15;;;;;;;40.75;19.70;;;0.30;99.90;;;;;;5089237;22;20481;-83
2023/12/05 05:58:48;;;;;;;37.72;18.80;;;0.30;99.90;;;;;;5054897;28;20056;-83
2023/12/05 06:01:26;;;;;;;36.97;17.55;;;0.30;99.90;;;;;;5067050;22;20499;-83
2023/12/05 06:04:02;;;;;;;41.42;18.65;;;0.30;99.90;;;;;;5074497;28;20450;-83
2023/12/05 06:06:28;;;;;;;37.78;20.25;;;0.30;99.90;;;;;;5074448;28;20044;-83
2023/12/05 06:09:07;;;;;;;37.72;18.40;;;0.30;99.90;;;;;;5074531;28;20036;-83
2023/12/05 06:11:33;;;;;;;40.33;20.52;;;0.30;99.90;;;;;;5074510;28;20047;-83
2023/12/05 06:13:58;;;;;;;34.75;18.15;;;0.30;99.90;;;;;;5074636;28;20036;-83
2023/12/05 06:16:24;;;;;;;40.08;19.85;;;0.20;99.90;;;;;;5075120;28;20136;-83
2023/12/05 06:18:50;;;;;;;37.30;17.83;;;0.30;99.90;;;;;;5074678;28;20032;-83
2023/12/05 06:21:18;;;;;;;37.28;17.95;;;0.20;99.90;;;;;;5074714;28;20484;-83
2023/12/05 06:23:44;;;;;;;37.50;18.65;;;0.20;99.90;;;;;;5074520;28;20127;-83
2023/12/05 06:26:10;;;;;;;35.78;18.10;;;0.20;99.90;;;;;;5125538;22;20140;-83
2023/12/05 06:28:36;;;;;;;35.67;18.02;;;0.30;99.90;;;;;;5054154;28;20045;-83
2023/12/05 06:31:05;;;;;;;31.35;15.77;;;0.30;99.90;;;;;;5054467;28;20049;-83
2023/12/05 06:33:30;;;;;;;39.35;18.83;;;0.30;99.90;;;;;;5054566;28;20053;-84
2023/12/05 06:36:02;;;;;;;32.50;17.02;;;0.20;99.90;;;;;;5054149;28;20052;-84
2023/12/05 06:38:28;;;;;;;34.10;18.52;;;0.30;99.90;;;;;;5054187;28;20041;-83
2023/12/05 06:40:59;;;;;;;36.88;18.38;;;0.30;99.90;;;;;;5054166;28;20049;-83
2023/12/05 06:43:30;;;;;;;32.92;17.42;;;0.30;99.90;;;;;;5053619;28;20107;-84
2023/12/05 06:46:02;;;;;;;33.40;16.92;;;0.30;99.90;;;;;;5053992;28;20040;-84
2023/12/05 06:48:31;;;;;;;38.55;17.27;;;0.30;99.90;;;;;;5054148;28;20094;-84
2023/12/05 06:51:03;;;;;;;36.65;18.30;;;0.30;99.90;;;;;;5054135;28;20393;-84
2023/12/05 06:53:31;;;;;;;34.60;18.33;;;0.30;99.90;;;;;;5047818;28;20449;-84
2023/12/05 06:56:03;;;;;;;38.05;17.30;;;0.30;99.90;;;;;;5053999;28;20080;-83
2023/12/05 06:58:31;;;;;;;36.78;17.55;;;0.30;99.90;;;;;;5053872;28;20389;-84
2023/12/05 07:00:58;;;;;;;34.47;17.70;;;0.40;99.90;;;;;;5053954;28;20139;-84
2023/12/05 07:03:27;;;;;;;40.67;18.92;;;0.40;99.90;;;;;;5053610;28;20072;-84
2023/12/05 07:06:05;;;;;;;31.73;17.02;;;0.40;99.90;;;;;;5053687;28;20464;-83
2023/12/05 07:08:31;;;;;;;38.65;18.00;;;0.30;99.90;;;;;;5053872;28;20045;-84
2023/12/05 07:11:05;;;;;;;41.40;18.48;;;0.30;99.90;;;;;;5053579;28;20082;-84
2023/12/05 07:13:30;;;;;;;38.53;18.30;;;0.30;99.90;;;;;;5053789;28;20128;-84
2023/12/05 07:16:02;;;;;;;38.65;20.13;;;0.30;99.90;;;;;;5053572;28;20187;-84
2023/12/05 07:18:34;;;;;;;42.30;20.05;;;0.30;99.90;;;;;;5053761;28;20045;-84
2023/12/05 07:21:09;;;;;;;35.58;17.25;;;0.30;99.90;;;;;;5053554;28;20041;-84
2023/12/05 07:23:50;;;;;;;39.33;20.25;;;0.30;99.90;;;;;;5053424;28;20045;-84
2023/12/05 07:26:22;;;;;;;37.70;18.42;;;0.30;99.90;;;;;;5053061;28;20064;-84
2023/12/05 07:28:52;;;;;;;35.92;17.08;;;0.30;99.90;;;;;;5053318;28;20090;-84
2023/12/05 07:31:32;;;;;;;33.70;17.17;;;0.30;99.90;;;;;;5053419;28;20041;-84
2023/12/05 07:34:03;;;;;;;44.35;20.95;;;0.30;99.90;;;;;;5054451;28;20126;-85
2023/12/05 07:36:33;;;;;;;45.05;18.40;;;0.30;99.90;;;;;;5053030;28;20124;-85
2023/12/05 07:38:59;;;;;;;36.75;16.05;;;0.30;99.90;;;;;;5052953;28;20041;-84
2023/12/05 07:41:25;;;;;;;40.92;19.38;;;0.30;99.90;;;;;;5052827;28;20041;-85
2023/12/05 07:43:51;;;;;;;41.60;17.73;;;0.30;99.90;;;;;;5052878;28;20098;-82
2023/12/05 07:46:18;;;;;;;40.65;18.70;;;0.30;99.90;;;;;;5053089;28;20128;-83
2023/12/05 07:48:44;;;;;;;39.88;18.75;;;0.30;99.90;;;;;;5052806;28;20055;-83
2023/12/05 07:51:17;;;;;;;43.53;18.52;;;0.30;99.90;;;;;;5053061;28;20033;-85
2023/12/05 07:53:44;;;;;;;42.10;20.67;;;0.30;99.90;;;;;;5052979;28;20139;-85
2023/12/05 07:56:10;;;;;;;38.28;18.85;;;0.20;99.90;;;;;;5050780;28;20044;-84
2023/12/05 07:58:36;;;;;;;38.92;18.77;;;0.30;99.90;;;;;;5048048;28;20138;-84
2023/12/05 08:01:04;;;;;;;37.25;20.30;;;0.30;99.90;;;;;;5052068;28;20091;-84
2023/12/05 08:03:32;;;;;;;39.53;19.48;;;0.30;99.90;;;;;;5050766;28;20067;-81
2023/12/05 08:05:58;;;;;;;36.30;17.75;;;0.30;99.90;;;;;;5051026;28;20048;-84
2023/12/05 08:08:24;;;;;;;39.50;19.63;;;0.30;99.90;;;;;;5051883;28;20049;-83
2023/12/05 08:10:50;;;;;;;39.95;19.33;;;0.30;99.90;;;;;;5052175;28;20504;-84
2023/12/05 08:13:15;;;;;;;40.72;20.17;;;0.30;99.90;;;;;;5051983;28;20102;-85
2023/12/05 08:15:41;;;;;;;39.75;19.80;;;0.30;99.90;;;;;;5052387;28;20063;-86
2023/12/05 08:18:06;;;;;;;38.90;18.60;;;0.30;99.90;;;;;;5052200;28;20507;-85
2023/12/05 08:20:32;;;;;;;36.65;17.92;;;0.30;99.90;;;;;;5052233;28;20056;-85
2023/12/05 08:22:57;;;;;;;39.63;18.83;;;0.40;99.90;;;;;;5051852;28;20373;-85
2023/12/05 08:25:23;;;;;;;35.80;19.15;;;0.40;99.90;;;;;;5052324;28;20048;-83
2023/12/05 08:27:49;;;;;;;38.67;17.58;;;0.40;99.90;;;;;;5051781;28;20060;-86
2023/12/05 08:30:15;;;;;;;40.45;23.35;;;0.40;99.90;;;;;;5051851;28;20564;-86
2023/12/05 08:32:42;;;;;;;40.92;19.42;;;0.40;99.90;;;;;;5085948;22;20114;-86
2023/12/05 08:35:11;;;;;;;39.22;19.10;;;0.40;99.90;;;;;;5071919;28;20047;-86
2023/12/05 08:37:43;;;;;;;38.75;22.10;;;0.40;99.90;;;;;;5071785;28;20131;-86
2023/12/05 08:40:12;;;;;;;41.17;20.60;;;0.40;99.90;;;;;;5072052;28;20064;-85
2023/12/05 08:42:40;;;;;;;37.63;19.58;;;0.40;99.90;;;;;;5071954;28;20095;-83
2023/12/05 08:45:12;;;;;;;40.03;19.98;;;0.40;99.90;;;;;;5072099;28;20078;-84
2023/12/05 08:47:43;;;;;;;37.78;18.17;;;0.50;99.90;;;;;;5071540;28;20056;-84
2023/12/05 08:50:12;;;;;;;42.28;18.58;;;0.50;99.90;;;;;;5071879;28;20044;-83
2023/12/05 08:52:44;;;;;;;38.60;19.70;;;0.50;99.90;;;;;;5072253;28;20503;-85
2023/12/05 08:55:31;;;;;;;42.15;21.50;;;0.50;99.90;;;;;;5071644;28;20094;-82
2023/12/05 08:57:56;;;;;;;36.83;19.83;;;0.50;99.90;;;;;;5071717;28;20423;-85
2023/12/05 09:00:37;;;;;;;38.17;19.85;;;0.50;99.90;;;;;;5072156;28;20518;-82
2023/12/05 09:03:08;;;;;;;34.75;19.45;;;0.50;99.90;;;;;;5070658;28;20040;-82
2023/12/05 09:05:43;;;;;;;39.28;16.75;;;0.50;99.90;;;;;;5071726;28;20131;-81
2023/12/05 09:08:12;;;;;;;39.00;20.13;;;0.60;99.90;;;;;;5074116;28;20131;-81
2023/12/05 09:10:43;;;;;;;38.55;19.60;;;0.60;99.90;;;;;;5074916;28;20036;-88
2023/12/05 09:13:14;;;;;;;41.92;21.88;;;0.60;99.90;;;;;;5082201;28;20533;-83
2023/12/05 09:15:43;;;;;;;36.17;19.25;;;0.60;99.90;;;;;;5095520;28;20135;-85
2023/12/05 09:18:10;;;;;;;43.88;20.42;;;0.60;99.90;;;;;;5095414;28;20058;-83
2023/12/05 09:20:39;;;;;;;45.05;21.13;;;0.70;99.90;;;;;;5095381;28;20052;-83
2023/12/05 09:23:08;;;;;;;40.72;20.98;;;0.70;99.90;;;;;;5095628;28;20131;-83
2023/12/05 09:25:42;;;;;;;42.85;21.88;;;0.70;99.90;;;;;;5095398;28;20040;-83
2023/12/05 09:28:11;;;;;;;39.67;20.60;;;0.70;99.90;;;;;;5095025;28;20048;-83
2023/12/05 09:30:42;;;;;;;39.08;20.88;;;0.70;99.90;;;;;;5095119;28;20446;-83
2023/12/05 09:33:15;;;;;;;38.42;21.08;;;0.70;99.90;;;;;;5077371;28;20053;-83
2023/12/05 09:35:47;;;;;;;36.90;18.52;;;0.70;99.90;;;;;;5063898;28;20048;-82
2023/12/05 09:38:12;;;;;;;39.80;18.95;;;0.70;99.90;;;;;;5055111;28;20420;-83
2023/12/05 09:40:51;;;;;;;38.33;20.10;;;0.70;99.90;;;;;;5055185;28;20139;-83
2023/12/05 09:43:21;;;;;;;39.55;19.85;;;0.80;99.90;;;;;;5054783;28;20464;-82
2023/12/05 09:45:50;;;;;;;38.03;20.38;;;0.70;99.90;;;;;;5060277;28;20131;-82
2023/12/05 09:48:19;;;;;;;39.75;20.55;;;0.70;99.90;;;;;;5071450;28;20552;-83
2023/12/05 09:50:45;;;;;;;36.15;18.23;;;0.70;99.90;;;;;;5056172;28;20049;-83
2023/12/05 09:53:13;;;;;;;34.95;20.60;;;0.70;99.90;;;;;;5054744;28;20055;-82
2023/12/05 09:55:39;;;;;;;40.70;21.73;;;0.60;99.90;;;;;;5060434;28;20534;-83
2023/12/05 09:58:07;;;;;;;34.47;20.77;;;0.70;99.90;;;;;;5065969;28;20090;-83
2023/12/05 10:00:32;;;;;;;39.88;20.08;;;0.60;99.90;;;;;;5063495;28;20047;-83
2023/12/05 10:03:03;;;;;;;37.10;18.77;;;0.70;99.90;;;;;;5057582;28;20036;-83
2023/12/05 10:05:32;;;;;;;35.80;20.88;;;0.70;99.90;;;;;;5074563;28;20048;-85
2023/12/05 10:07:59;;;;;;;33.25;18.33;;;0.70;99.90;;;;;;5074484;28;20064;-83
2023/12/05 10:10:25;;;;;;;40.03;22.45;;;0.70;99.90;;;;;;5074380;28;20119;-83
2023/12/05 10:12:51;;;;;;;38.53;22.05;;;0.60;99.90;;;;;;5074152;28;20052;-84
2023/12/05 10:15:20;;;;;;;39.70;19.80;;;0.70;99.90;;;;;;5074315;28;20037;-83
2023/12/05 10:17:46;;;;;;;40.53;22.63;;;0.60;99.90;;;;;;5056533;28;20102;-83
2023/12/05 10:20:12;;;;;;;41.17;20.70;;;0.60;99.90;;;;;;5069570;28;20505;-83
2023/12/05 10:22:38;;;;;;;40.85;20.98;;;0.60;99.90;;;;;;5094612;28;20127;-83
2023/12/05 10:25:07;;;;;;;39.55;21.17;;;0.70;99.90;;;;;;5094658;28;20134;-83
2023/12/05 10:27:32;;;;;;;37.47;20.17;;;0.70;99.90;;;;;;5094496;28;20491;-83
2023/12/05 10:29:58;;;;;;;36.47;19.65;;;0.70;99.90;;;;;;5094353;28;20083;-83
2023/12/05 10:32:26;;;;;;;38.15;19.52;;;0.70;99.90;;;;;;5094059;28;20051;-84
2023/12/05 10:34:56;;;;;;;40.47;22.55;;;0.60;99.90;;;;;;5094380;28;20109;-83
2023/12/05 10:37:27;;;;;;;40.08;20.88;;;0.60;99.90;;;;;;5083324;28;20041;-83
2023/12/05 10:39:54;;;;;;;42.53;22.40;;;0.70;99.90;;;;;;5062263;28;20077;-83
2023/12/05 10:42:24;;;;;;;46.75;23.73;;;0.60;99.90;;;;;;5053717;28;20461;-83
2023/12/05 10:44:50;;;;;;;43.00;21.20;;;0.60;99.90;;;;;;5054073;28;20123;-84
2023/12/05 10:47:16;;;;;;;43.58;22.58;;;0.60;99.90;;;;;;5053630;28;20055;-83
2023/12/05 10:49:43;;;;;;;46.42;23.35;;;0.60;99.90;;;;;;5053678;28;20131;-84
2023/12/05 10:52:11;;;;;;;42.03;20.90;;;0.60;99.90;;;;;;5054216;28;20059;-83
2023/12/05 10:54:37;;;;;;;39.72;21.27;;;0.60;99.90;;;;;;5053727;28;20061;-83
2023/12/05 10:57:09;;;;;;;39.75;21.20;;;0.60;99.90;;;;;;5053781;28;20136;-83
2023/12/05 10:59:35;;;;;;;44.57;23.73;;;0.70;99.90;;;;;;5053491;28;20079;-84
2023/12/05 11:02:01;;;;;;;46.55;22.67;;;0.60;99.90;;;;;;5053494;28;20045;-83
2023/12/05 11:04:26;;;;;;;43.42;23.88;;;0.60;99.90;;;;;;5053333;28;20045;-84
2023/12/05 11:06:52;;;;;;;45.65;22.70;;;0.60;99.90;;;;;;5054933;28;20065;-87
2023/12/05 11:09:18;;;;;;;42.30;20.67;;;0.60;99.90;;;;;;5054135;28;20045;-84
2023/12/05 11:11:46;;;;;;;40.42;21.17;;;0.60;99.90;;;;;;5063097;28;20036;-84
2023/12/05 11:14:14;;;;;;;45.97;23.60;;;0.60;99.90;;;;;;5063699;28;20041;-84
2023/12/05 11:16:47;;;;;;;42.13;21.88;;;0.60;99.90;;;;;;5067921;28;20045;-83
2023/12/05 11:19:42;;;;;;;43.42;21.30;;;0.60;99.90;;;;;;5069716;28;20044;-83
2023/12/05 11:22:41;;;;;;;47.78;23.50;;;0.70;99.90;;;;;;5058618;28;20041;-85
2023/12/05 11:25:44;;;;;;;41.92;20.17;;;0.60;99.90;;;;;;5071730;28;20054;-85
2023/12/05 11:28:34;;;;;;;41.42;20.75;;;0.70;99.90;;;;;;5064058;22;20052;-84
2023/12/05 11:31:48;;;;;;;40.72;22.30;;;0.70;99.90;;;;;;5055516;28;20044;-85
2023/12/05 11:34:44;;;;;;;41.35;21.05;;;0.70;99.90;;;;;;4985876;28;20057;-84
2023/12/05 11:37:31;;;;;;;44.35;21.08;;;0.70;99.90;;;;;;5055923;28;20090;-84
2023/12/05 11:39:57;;;;;;;40.63;20.15;;;0.70;99.90;;;;;;5055926;28;20048;-84
2023/12/05 11:42:25;;;;;;;46.00;22.10;;;0.70;99.90;;;;;;5075820;22;20040;-85
2023/12/05 11:45:41;;;;;;;41.17;20.83;;;0.70;99.90;;;;;;5137190;22;20139;-86
2023/12/05 11:48:10;;;;;;;39.40;20.23;;;0.70;99.90;;;;;;5092470;28;20058;-85
2023/12/05 11:51:07;;;;;;;40.25;19.98;;;0.70;99.90;;;;;;5092687;28;20048;-86
2023/12/05 11:53:54;;;;;;;45.40;23.05;;;0.70;99.90;;;;;;5092969;28;20134;-86
2023/12/05 11:56:20;;;;;;;42.65;18.42;;;0.70;99.90;;;;;;5092460;28;20044;-89
2023/12/05 11:58:45;;;;;;;45.05;22.58;;;0.70;99.90;;;;;;5092538;28;20046;-86
2023/12/05 12:01:15;;;;;;;47.42;24.63;;;0.70;99.90;;;;;;5092575;28;20135;-87
2023/12/05 12:04:19;;;;;;;43.28;20.90;;;0.70;99.90;;;;;;5092509;28;20074;-86
2023/12/05 12:06:49;;;;;;;43.88;22.23;;;0.70;99.90;;;;;;5092903;28;20048;-85
2023/12/05 12:09:20;;;;;;;45.30;22.92;;;0.70;99.90;;;;;;5092472;28;20044;-85
2023/12/05 12:12:34;;;;;;;51.35;24.90;;;0.70;99.90;;;;;;5092326;28;20487;-85
2023/12/05 12:15:06;;;;;;;47.17;24.95;;;0.70;99.90;;;;;;4994736;28;20167;-84
2023/12/05 12:17:48;;;;;;;50.55;24.40;;;0.70;99.90;;;;;;4995459;28;20046;-84
2023/12/05 12:20:35;;;;;;;43.80;24.05;;;0.70;99.90;;;;;;4998273;28;20480;-83
2023/12/05 12:23:02;;;;;;;50.75;22.42;;;0.80;99.90;;;;;;5092558;28;20132;-82
2023/12/05 12:25:52;;;;;;;43.50;21.50;;;0.80;99.90;;;;;;5092408;28;20044;-83
2023/12/05 12:28:49;;;;;;;48.50;24.60;;;0.70;99.90;;;;;;5092179;28;20040;-84
2023/12/05 12:31:27;;;;;;;46.75;21.67;;;0.70;99.90;;;;;;5092236;28;20047;-82
2023/12/05 12:33:53;;;;;;;47.50;23.50;;;0.80;99.90;;;;;;5092407;28;20126;-83
2023/12/05 12:36:19;;;;;;;53.50;24.95;;;0.70;99.90;;;;;;5092036;28;20462;-83
2023/12/05 12:38:49;;;;;;;47.22;22.52;;;0.70;99.90;;;;;;5092637;28;20047;-83
2023/12/05 12:41:15;;;;;;;50.63;24.90;;;0.70;99.90;;;;;;5091242;28;20135;-83
2023/12/05 12:43:54;;;;;;;48.55;24.88;;;0.70;99.90;;;;;;5091159;28;20134;-84
2023/12/05 12:46:29;;;;;;;45.97;23.67;;;0.70;99.90;;;;;;5091702;28;20044;-84